Marlborough, NH (03455)

11:50 PM EDT on September 02, 2014 (GMT -0400)
@1332 Ft./ Heavily Wooded Lot | Change Station
CLOSE
Current Station
Personal Weather Station
Location: Roxbury, NH
Elevation: 1332 ft
Nearby Weather Stations

Elev 1332 ft 42.95 °N, 72.22 °W | Updated 2 minutes ago

Scattered Clouds
Scattered Clouds
70.6 °F
Feels Like 70.6 °F
N
0.0
Wind Variable Wind from North
Gusts 0.0 mph

Today
High -- | Low -- °F
--% Chance of Precip.
Yesterday
High -- | Low -- °F
Precip. -- in
6:14 AM 7:21 PM
First Quarter, 58% visible
Pressure 29.73 in
Visibility 7.0 miles
Clouds Scattered Clouds 9000 ft
Dew Point 68 °F
Humidity 92%
Rainfall -999.00 in
Snow Depth Not available.
UV 0 out of 12
Pollen 6.00 out of 12
Ozone Good
PM2.5 Good
Flu Activity Not available.
METAR KEEN 030335Z AUTO 00000KT 7SM SCT090 22/17 A2973 RMK AO1

More Conditions Fewer Conditions

Pressure 29.73 in
Visibility 7.0 miles
Clouds Scattered Clouds 9000 ft
Dew Point 68 °F
Humidity 92%
Rainfall -999.00 in
Snow Depth Not available.
UV 0 out of 12
Pollen 6.00 out of 12
Ozone Good
PM2.5 Good
Flu Activity Not available.
METAR KEEN 030335Z AUTO 00000KT 7SM SCT090 22/17 A2973 RMK AO1

More Conditions Fewer Conditions

10-Day Weather Forecast

Almanac

Astronomy

Sep. 02, 2014 Rise Set
Actual Time 6:14 AM EDT 7:21 PM EDT
Civil Twilight 5:45 AM EDT 7:50 PM EDT
Nautical Twilight 5:10 AM EDT 8:25 PM EDT
Astronomical Twilight 4:33 AM EDT 9:01 PM EDT
Moon 2:06 PM EDT (9/2) No Moon Set
Length of Visible Light 14h 05m
Length of Day
13h 07m
Tomorrow will be 2m 48s shorter.
First Quarter, 58% of the Moon is Illuminated
Today
First Quarter
Sep 8
Full
Sep 15
Last Quarter
Sep 24
New
Oct 1
First Quarter

Today's Extremes

State Highs State Lows

Community

WunderPhotos

Upload Photos

1,749,867 photos uploaded!

Nearby

Air Quality

  Air Quality AQ Index Pollutant
Yesterday Good
OZONE
Yesterday Good
PM2.5
Current Good
PM2.5
Current Good
OZONE
Tuesday Good
PM2.5
Tuesday Good
OZONE
Wednesday Good
PM2.5
Wednesday Good
OZONE

Snow Depth

Station Depth Elevation
No new snow has been reported.

Earthquake Activity

City Distance Mag. Time & Date
No recent earthquake activity has been reported nearby.
Minimum magnitude displayed is 2.5.

Coastal Water Temperatures

Place Temperature
No Stations Reporting

Nearby Weather Stations